createdAt,value
2023-11-15T00:02:42.860Z,57.92
2023-11-15T00:08:55.035Z,58.81
2023-11-15T00:11:43.730Z,58.87
2023-11-15T00:30:57.820Z,59.66
2023-11-15T00:32:47.255Z,59.89
2023-11-15T00:35:40.247Z,60.50
2023-11-15T01:50:15.543Z,65.96
2023-11-15T01:52:45.756Z,66.77
2023-11-15T01:55:45.201Z,66.26
2023-11-15T02:05:15.434Z,67.83
2023-11-15T02:06:17.924Z,68.35
2023-11-15T02:08:19.820Z,67.93
2023-11-15T02:18:48.851Z,68.08
2023-11-15T02:21:24.332Z,67.98
2023-11-15T02:50:47.680Z,72.23
2023-11-15T03:31:11.736Z,74.33
2023-11-15T03:33:47.419Z,73.62
2023-11-15T03:39:45.936Z,72.69
2023-11-15T03:42:43.644Z,72.02
2023-11-15T03:45:47.955Z,72.92
2023-11-15T03:54:52.872Z,72.86
2023-11-15T03:58:12.758Z,73.19
2023-11-15T04:01:56.894Z,74.29
2023-11-15T04:11:31.796Z,75.71
2023-11-15T04:33:13.594Z,76.76
2023-11-15T04:49:13.342Z,76.76
2023-11-15T04:51:55.809Z,76.42
2023-11-15T04:55:14.430Z,76.58
2023-11-15T05:02:49.647Z,77.19
2023-11-15T05:12:16.255Z,77.60
2023-11-15T05:15:22.420Z,77.94
2023-11-15T05:40:23.132Z,77.47
2023-11-15T05:50:07.322Z,75.45
2023-11-15T06:06:37.966Z,73.09
2023-11-15T06:38:42.292Z,74.54
2023-11-15T06:48:41.455Z,75.62
2023-11-15T06:59:36.432Z,74.32
2023-11-15T07:18:36.378Z,72.52
2023-11-15T07:38:42.483Z,70.50
2023-11-15T07:41:38.331Z,69.93
2023-11-15T07:44:15.356Z,70.05
2023-11-15T07:53:38.630Z,69.12
2023-11-15T07:59:36.216Z,68.81
2023-11-15T08:02:04.914Z,69.03
2023-11-15T08:05:03.414Z,69.32
2023-11-15T08:08:39.208Z,69.57
2023-11-15T08:33:11.186Z,70.98
2023-11-15T08:36:05.841Z,70.31
2023-11-15T08:39:20.971Z,69.15
2023-11-15T08:46:11.750Z,68.41
2023-11-15T09:11:07.795Z,67.53
2023-11-15T09:14:11.248Z,67.86
2023-11-15T09:19:55.414Z,67.21
2023-11-15T09:23:18.659Z,67.13
2023-11-15T09:26:33.934Z,67.13
2023-11-15T09:35:06.664Z,66.87
2023-11-15T09:41:13.787Z,66.16
2023-11-15T09:45:17.176Z,66.48
2023-11-15T09:52:16.568Z,66.83
2023-11-15T10:02:37.175Z,66.39
2023-11-15T10:22:37.419Z,66.15
2023-11-15T10:32:40.412Z,66.50
2023-11-15T10:41:40.247Z,65.96
2023-11-15T10:44:35.221Z,66.54
2023-11-15T10:47:38.161Z,65.91
2023-11-15T10:50:42.617Z,65.79
2023-11-15T11:04:39.505Z,66.05
2023-11-15T11:07:59.368Z,66.01
2023-11-15T11:14:44.750Z,65.51
2023-11-15T11:18:31.549Z,65.34
2023-11-15T11:25:02.742Z,65.17
2023-11-15T11:30:47.512Z,65.34
2023-11-15T11:34:34.101Z,65.49
2023-11-15T11:37:05.338Z,65.23
2023-11-15T11:46:33.942Z,66.07
2023-11-15T11:49:02.830Z,66.04
2023-11-15T12:00:59.099Z,66.08
2023-11-15T12:13:06.582Z,65.83
2023-11-15T12:23:01.096Z,65.74
2023-11-15T12:29:03.273Z,66.02
2023-11-15T12:32:07.904Z,65.94
2023-11-15T12:36:00.223Z,65.83
2023-11-15T12:38:29.674Z,65.76
2023-11-15T12:41:08.074Z,65.94
2023-11-15T12:52:55.039Z,65.75
2023-11-15T12:56:15.817Z,65.51
2023-11-15T13:14:05.801Z,66.54
2023-11-15T13:22:03.663Z,66.00
2023-11-15T13:25:01.523Z,66.30
2023-11-15T13:27:31.989Z,66.44
2023-11-15T13:33:32.941Z,66.03
2023-11-15T13:38:54.591Z,66.43
2023-11-15T13:58:27.523Z,67.00
2023-11-15T14:12:28.260Z,67.76
2023-11-15T14:15:27.773Z,67.95
2023-11-15T14:18:32.086Z,68.00
2023-11-15T14:21:29.649Z,67.96
2023-11-15T14:23:59.278Z,68.32
2023-11-15T14:26:27.659Z,68.52
2023-11-15T14:32:29.892Z,68.89
2023-11-15T14:35:20.564Z,68.83
2023-11-15T14:37:57.270Z,69.34
2023-11-15T14:43:28.557Z,69.02
2023-11-15T14:45:57.590Z,69.11
2023-11-15T14:48:26.346Z,69.06
2023-11-15T14:50:59.496Z,69.49
2023-11-15T14:53:55.658Z,69.47
2023-11-15T14:56:29.764Z,69.32
2023-11-15T15:01:58.555Z,68.89
2023-11-15T15:04:49.962Z,69.36
2023-11-15T15:07:37.822Z,69.64
2023-11-15T15:11:37.498Z,70.01
2023-11-15T16:07:02.005Z,73.35
2023-11-15T16:09:56.396Z,72.38
2023-11-15T16:12:24.956Z,72.23
2023-11-15T16:14:59.256Z,71.92
2023-11-15T16:17:56.404Z,71.78
2023-11-15T16:20:57.901Z,71.67
2023-11-15T16:23:24.431Z,71.76
2023-11-15T16:28:26.771Z,72.02
2023-11-15T16:30:55.968Z,71.94
2023-11-15T16:33:24.397Z,72.57
2023-11-15T16:36:02.287Z,72.14
2023-11-15T16:39:02.925Z,71.63
2023-11-15T16:41:56.701Z,71.03
2023-11-15T16:44:30.576Z,70.64
2023-11-15T16:46:59.002Z,70.04
2023-11-15T16:50:00.213Z,68.72
2023-11-15T16:52:28.703Z,68.60
2023-11-15T16:54:57.009Z,68.22
2023-11-15T16:57:25.555Z,68.27
2023-11-15T17:02:21.312Z,67.03
2023-11-15T17:04:55.727Z,66.41
2023-11-15T17:07:24.126Z,66.83
2023-11-15T17:09:53.483Z,66.40
2023-11-15T17:12:23.318Z,65.66
2023-11-15T17:15:24.116Z,64.85
2023-11-15T17:17:52.585Z,65.14
2023-11-15T17:20:21.384Z,64.93
2023-11-15T17:22:50.040Z,65.08
2023-11-15T17:25:21.860Z,64.82
2023-11-15T17:27:52.631Z,64.94
2023-11-15T17:30:28.377Z,64.76
2023-11-15T17:33:22.428Z,64.46
2023-11-15T17:35:51.349Z,64.44
2023-11-15T17:38:22.660Z,64.88
2023-11-15T17:40:50.892Z,64.94
2023-11-15T17:43:24.308Z,65.26
2023-11-15T17:45:56.355Z,64.79
2023-11-15T17:48:25.497Z,64.66
2023-11-15T17:53:43.090Z,64.35
2023-11-15T17:56:23.106Z,64.47
2023-11-15T17:58:53.501Z,64.75
2023-11-15T18:01:23.058Z,64.28
2023-11-15T18:03:51.625Z,63.97
2023-11-15T18:11:57.905Z,63.54
2023-11-15T18:15:37.712Z,63.97
2023-11-15T18:17:26.457Z,63.53
2023-11-15T18:20:25.652Z,62.63
2023-11-15T18:22:56.253Z,62.72
2023-11-15T18:25:26.454Z,62.82
2023-11-15T18:34:31.575Z,62.74
2023-11-15T18:37:32.688Z,62.41
2023-11-15T18:40:25.586Z,63.40
2023-11-15T18:43:20.307Z,63.90
2023-11-15T18:45:49.705Z,64.28
2023-11-15T18:48:26.832Z,62.67
2023-11-15T18:53:37.402Z,61.72
2023-11-15T18:56:10.235Z,61.35
2023-11-15T18:59:23.763Z,60.53
2023-11-15T19:01:52.201Z,60.69
2023-11-15T19:04:20.864Z,59.98
2023-11-15T19:06:51.726Z,60.25
2023-11-15T19:09:25.392Z,60.03
2023-11-15T19:11:57.645Z,59.22
2023-11-15T19:14:26.959Z,58.38
2023-11-15T19:16:55.318Z,58.23
2023-11-15T19:19:24.893Z,58.43
2023-11-15T19:21:53.608Z,57.60
2023-11-15T19:24:22.853Z,57.46
2023-11-15T19:26:51.977Z,57.64
2023-11-15T19:29:20.319Z,57.13
2023-11-15T19:31:53.844Z,56.56
2023-11-15T19:34:25.213Z,56.82
2023-11-15T19:36:54.615Z,56.78
2023-11-15T19:39:23.130Z,56.27
2023-11-15T19:41:52.456Z,56.04
2023-11-15T19:44:20.894Z,55.53
2023-11-15T19:46:49.306Z,55.94
2023-11-15T19:49:21.628Z,55.87
2023-11-15T19:51:53.445Z,55.42
2023-11-15T19:54:23.649Z,55.61
2023-11-15T19:56:52.586Z,54.84
2023-11-15T19:59:21.010Z,55.02
2023-11-15T20:01:52.484Z,54.25
2023-11-15T20:04:21.876Z,54.36
2023-11-15T20:06:51.831Z,53.63
2023-11-15T20:09:20.171Z,53.27
2023-11-15T20:11:50.032Z,53.37
2023-11-15T20:14:22.693Z,53.02
2023-11-15T20:19:40.423Z,53.06
2023-11-15T20:22:10.035Z,52.95
2023-11-15T20:24:39.868Z,53.36
2023-11-15T20:27:10.074Z,53.54
2023-11-15T20:29:40.688Z,53.30
2023-11-15T20:32:09.910Z,53.51
2023-11-15T20:34:39.930Z,53.45
2023-11-15T20:37:08.746Z,53.30
2023-11-15T20:39:38.377Z,53.05
2023-11-15T20:42:08.430Z,53.47
2023-11-15T20:44:49.367Z,53.29
2023-11-15T20:47:21.138Z,53.03
2023-11-15T20:49:53.217Z,52.81
2023-11-15T20:52:22.031Z,53.60
2023-11-15T20:54:50.779Z,53.79
2023-11-15T20:57:19.087Z,54.05
2023-11-15T20:59:47.993Z,53.56
2023-11-15T21:02:17.074Z,53.02
2023-11-15T21:04:46.103Z,53.20
2023-11-15T21:07:15.500Z,53.20
2023-11-15T21:09:50.267Z,52.67
2023-11-15T21:12:20.269Z,53.25
2023-11-15T21:14:49.720Z,52.84
2023-11-15T21:17:18.657Z,52.70
2023-11-15T21:19:47.175Z,52.75
2023-11-15T21:22:50.754Z,52.51
2023-11-15T21:25:19.193Z,52.91
2023-11-15T21:27:47.578Z,52.61
2023-11-15T21:30:18.314Z,52.59
2023-11-15T21:32:50.080Z,52.10
2023-11-15T21:35:19.390Z,51.91
2023-11-15T21:37:50.756Z,51.65
2023-11-15T21:40:20.524Z,51.23
2023-11-15T21:42:50.670Z,51.18
2023-11-15T21:45:22.025Z,51.13
2023-11-15T21:47:51.105Z,50.71
2023-11-15T21:53:52.304Z,49.84
2023-11-15T21:56:22.685Z,50.42
2023-11-15T22:01:56.375Z,50.48
2023-11-15T22:04:27.604Z,50.58
2023-11-15T22:07:02.115Z,49.93
2023-11-15T22:12:15.095Z,50.45
2023-11-15T22:14:51.315Z,50.38
2023-11-15T22:17:19.703Z,50.61
2023-11-15T22:19:48.008Z,50.59
2023-11-15T22:22:18.589Z,50.25
2023-11-15T22:24:47.995Z,50.31
2023-11-15T22:27:16.845Z,50.90
2023-11-15T22:29:52.046Z,50.79
2023-11-15T22:32:21.334Z,50.29
2023-11-15T22:34:49.899Z,50.31
2023-11-15T22:37:18.274Z,50.64
2023-11-15T22:39:47.359Z,50.15
2023-11-15T22:42:17.080Z,50.27
2023-11-15T22:44:45.954Z,50.36
2023-11-15T22:47:15.068Z,50.91
2023-11-15T22:49:44.024Z,50.71
2023-11-15T22:52:12.883Z,51.00
2023-11-15T22:54:41.879Z,51.38
2023-11-15T22:57:10.890Z,51.07
2023-11-15T22:59:52.143Z,51.06
2023-11-15T23:02:22.345Z,50.95
2023-11-15T23:04:51.186Z,51.09
2023-11-15T23:07:22.438Z,50.95
2023-11-15T23:09:51.905Z,51.42
2023-11-15T23:12:20.718Z,51.16
2023-11-15T23:14:50.013Z,51.16
2023-11-15T23:17:18.839Z,51.42
2023-11-15T23:19:47.244Z,51.58
2023-11-15T23:22:16.501Z,51.82
2023-11-15T23:24:45.879Z,51.44
2023-11-15T23:27:19.261Z,51.52
2023-11-15T23:29:48.594Z,51.34
2023-11-15T23:32:18.756Z,51.30
2023-11-15T23:34:57.324Z,51.22
2023-11-15T23:38:35.140Z,51.36
